createdAt,value
2023-05-05T00:00:25.743Z,38.90
2023-05-05T00:02:54.101Z,38.90
2023-05-05T00:05:23.997Z,38.90
2023-05-05T00:07:52.336Z,38.90
2023-05-05T00:10:22.159Z,39.00
2023-05-05T00:12:50.752Z,39.10
2023-05-05T00:15:19.296Z,39.10
2023-05-05T00:17:47.666Z,39.20
2023-05-05T00:20:16.030Z,39.20
2023-05-05T00:22:44.318Z,39.30
2023-05-05T00:25:12.670Z,39.30
2023-05-05T00:27:42.335Z,39.40
2023-05-05T00:30:11.653Z,39.30
2023-05-05T00:32:39.989Z,39.40
2023-05-05T00:35:09.510Z,39.40
2023-05-05T00:37:37.807Z,39.50
2023-05-05T00:40:07.929Z,39.50
2023-05-05T00:42:43.020Z,39.60
2023-05-05T00:45:12.817Z,39.80
2023-05-05T00:47:43.348Z,39.70
2023-05-05T00:50:21.697Z,39.70
2023-05-05T00:52:50.528Z,39.70
2023-05-05T00:55:19.662Z,39.80
2023-05-05T00:57:50.260Z,39.70
2023-05-05T01:00:19.036Z,39.80
2023-05-05T01:02:47.411Z,39.80
2023-05-05T01:05:17.281Z,39.80
2023-05-05T01:08:20.515Z,39.80
2023-05-05T01:10:59.014Z,40.20
2023-05-05T01:13:38.857Z,40.00
2023-05-05T01:16:14.061Z,40.10
2023-05-05T01:18:51.212Z,40.10
2023-05-05T01:21:27.128Z,40.30
2023-05-05T01:24:34.371Z,40.20
2023-05-05T01:27:38.298Z,40.60
2023-05-05T01:30:35.073Z,40.60
2023-05-05T01:33:10.318Z,40.60
2023-05-05T01:35:43.721Z,40.40
2023-05-05T01:38:18.408Z,40.40
2023-05-05T01:40:51.692Z,40.60
2023-05-05T01:43:23.830Z,40.40
2023-05-05T01:45:54.975Z,40.50
2023-05-05T01:48:27.215Z,40.50
2023-05-05T01:50:56.097Z,40.60
2023-05-05T01:53:26.752Z,40.60
2023-05-05T01:55:56.390Z,40.70
2023-05-05T01:58:25.722Z,40.80
2023-05-05T02:00:58.409Z,40.80
2023-05-05T02:03:30.131Z,40.90
2023-05-05T02:06:01.841Z,41.00
2023-05-05T02:08:32.180Z,40.90
2023-05-05T02:11:01.158Z,41.00
2023-05-05T02:13:32.401Z,41.00
2023-05-05T02:16:01.642Z,41.00
2023-05-05T02:18:35.936Z,41.10
2023-05-05T02:21:05.137Z,41.10
2023-05-05T02:23:34.305Z,41.00
2023-05-05T02:26:08.203Z,41.10
2023-05-05T02:28:42.482Z,41.20
2023-05-05T02:31:13.519Z,41.30
2023-05-05T02:33:45.664Z,41.30
2023-05-05T02:36:20.340Z,41.20
2023-05-05T02:39:01.225Z,41.20
2023-05-05T02:41:34.784Z,41.30
2023-05-05T02:44:09.595Z,41.30
2023-05-05T02:46:39.822Z,41.30
2023-05-05T02:49:09.683Z,41.30
2023-05-05T02:51:39.622Z,41.30
2023-05-05T02:54:15.855Z,41.30
2023-05-05T02:56:50.157Z,41.30
2023-05-05T02:59:28.732Z,41.50
2023-05-05T03:02:11.911Z,41.50
2023-05-05T03:04:46.915Z,41.50
2023-05-05T03:07:22.412Z,41.60
2023-05-05T03:09:58.405Z,41.50
2023-05-05T03:12:37.698Z,41.60
2023-05-05T03:15:16.590Z,41.60
2023-05-05T03:17:47.386Z,41.60
2023-05-05T03:20:18.071Z,41.60
2023-05-05T03:22:49.935Z,41.70
2023-05-05T03:25:18.352Z,41.70
2023-05-05T03:27:46.746Z,41.70
2023-05-05T03:30:20.291Z,41.80
2023-05-05T03:32:51.694Z,41.80
2023-05-05T03:35:21.860Z,41.80
2023-05-05T03:37:50.304Z,41.90
2023-05-05T03:40:20.177Z,42.00
2023-05-05T03:42:49.579Z,42.00
2023-05-05T03:45:19.044Z,42.00
2023-05-05T03:47:47.458Z,42.10
2023-05-05T03:50:16.464Z,42.00
2023-05-05T03:52:46.621Z,42.10
2023-05-05T03:55:15.150Z,42.20
2023-05-05T03:57:43.452Z,42.20
2023-05-05T04:00:13.327Z,42.80
2023-05-05T04:02:46.674Z,42.30
2023-05-05T04:05:18.351Z,42.20
2023-05-05T04:07:48.051Z,42.40
2023-05-05T04:10:17.136Z,42.40
2023-05-05T04:12:46.360Z,42.40
2023-05-05T04:15:14.821Z,42.40
2023-05-05T04:17:43.409Z,42.60
2023-05-05T04:20:12.564Z,42.60
2023-05-05T04:22:41.685Z,42.70
2023-05-05T04:25:11.942Z,42.80
2023-05-05T04:27:40.328Z,42.80
2023-05-05T04:30:10.809Z,42.80
2023-05-05T04:32:41.498Z,42.80
2023-05-05T04:35:11.092Z,42.90
2023-05-05T04:37:39.550Z,42.90
2023-05-05T04:40:11.629Z,43.10
2023-05-05T04:42:41.210Z,43.10
2023-05-05T04:45:11.145Z,43.20
2023-05-05T04:47:40.817Z,43.30
2023-05-05T04:50:11.404Z,43.40
2023-05-05T04:52:40.497Z,43.50
2023-05-05T04:55:12.448Z,43.50
2023-05-05T04:57:40.809Z,43.70
2023-05-05T05:00:11.323Z,43.60
2023-05-05T05:02:39.783Z,43.60
2023-05-05T05:05:09.645Z,43.60
2023-05-05T05:07:38.300Z,43.70
2023-05-05T05:10:08.290Z,43.70
2023-05-05T05:12:38.637Z,43.90
2023-05-05T05:15:08.721Z,43.90
2023-05-05T05:17:37.052Z,43.90
2023-05-05T05:20:07.506Z,43.90
2023-05-05T05:22:38.338Z,43.90
2023-05-05T05:25:10.319Z,44.00
2023-05-05T05:27:40.092Z,44.00
2023-05-05T05:30:10.223Z,43.90
2023-05-05T05:32:40.079Z,44.00
2023-05-05T05:35:09.705Z,44.10
2023-05-05T05:37:38.086Z,44.10
2023-05-05T05:40:08.812Z,44.20
2023-05-05T05:42:41.286Z,44.40
2023-05-05T05:45:11.266Z,44.40
2023-05-05T05:47:40.392Z,44.50
2023-05-05T05:50:10.078Z,44.50
2023-05-05T05:52:38.647Z,44.50
2023-05-05T05:55:09.909Z,44.50
2023-05-05T05:57:41.312Z,44.70
2023-05-05T06:00:13.384Z,45.30
2023-05-05T06:02:43.867Z,44.80
2023-05-05T06:05:16.055Z,44.70
2023-05-05T06:07:46.512Z,44.70
2023-05-05T06:10:26.551Z,44.80
2023-05-05T06:13:02.052Z,44.80
2023-05-05T06:15:32.053Z,44.90
2023-05-05T06:18:02.270Z,45.00
2023-05-05T06:20:30.708Z,45.00
2023-05-05T06:22:59.277Z,45.20
2023-05-05T06:25:29.498Z,45.20
2023-05-05T06:27:57.802Z,45.30
2023-05-05T06:30:27.578Z,45.30
2023-05-05T06:32:55.897Z,45.60
2023-05-05T06:35:24.758Z,45.50
2023-05-05T06:37:53.158Z,46.20
2023-05-05T06:40:21.511Z,45.60
2023-05-05T06:42:49.849Z,45.60
2023-05-05T06:45:23.667Z,45.70
2023-05-05T06:47:53.544Z,45.80
2023-05-05T06:50:22.060Z,45.80
2023-05-05T06:52:50.425Z,45.90
2023-05-05T06:55:18.716Z,45.90
2023-05-05T06:57:47.084Z,45.90
2023-05-05T07:00:17.473Z,45.80
2023-05-05T07:02:47.601Z,46.00
2023-05-05T07:05:17.533Z,46.00
2023-05-05T07:07:53.677Z,46.00
2023-05-05T07:10:23.904Z,46.30
2023-05-05T07:12:54.913Z,46.00
2023-05-05T07:15:28.065Z,45.90
2023-05-05T07:17:58.244Z,46.10
2023-05-05T07:20:29.045Z,45.90
2023-05-05T07:22:57.341Z,46.00
2023-05-05T07:25:25.668Z,45.90
2023-05-05T07:27:54.122Z,45.80
2023-05-05T07:30:22.602Z,46.00
2023-05-05T07:32:51.513Z,46.30
2023-05-05T07:35:19.909Z,46.30
2023-05-05T07:37:49.611Z,46.50
2023-05-05T07:40:18.046Z,46.40
2023-05-05T07:42:47.468Z,46.40
2023-05-05T07:45:15.822Z,46.40
2023-05-05T07:47:44.220Z,46.40
2023-05-05T07:50:12.774Z,46.60
2023-05-05T07:52:47.939Z,46.20
2023-05-05T07:55:21.741Z,46.00
2023-05-05T07:57:50.721Z,45.70
2023-05-05T08:00:21.715Z,45.40
2023-05-05T08:02:50.329Z,45.20
2023-05-05T08:05:18.971Z,45.60
2023-05-05T08:07:47.357Z,44.50
2023-05-05T08:10:15.723Z,44.10
2023-05-05T08:12:45.543Z,43.70
2023-05-05T08:15:14.160Z,43.40
2023-05-05T08:17:48.075Z,43.40
2023-05-05T08:20:16.968Z,42.80
2023-05-05T08:22:45.824Z,42.60
2023-05-05T08:25:15.179Z,42.00
2023-05-05T08:27:46.023Z,41.80
2023-05-05T08:30:17.188Z,41.80
2023-05-05T08:32:45.652Z,41.70
2023-05-05T08:35:14.309Z,41.00
2023-05-05T08:37:42.855Z,41.00
2023-05-05T08:40:15.050Z,40.80
2023-05-05T08:42:45.836Z,40.70
2023-05-05T08:45:14.230Z,40.50
2023-05-05T08:47:43.424Z,40.30
2023-05-05T08:50:13.170Z,40.00
2023-05-05T08:52:44.890Z,40.60
2023-05-05T08:55:25.678Z,39.80
2023-05-05T08:57:57.769Z,39.30
2023-05-05T09:00:27.664Z,39.50
2023-05-05T09:02:58.868Z,39.60
2023-05-05T09:05:28.243Z,39.20
2023-05-05T09:07:56.647Z,39.30
2023-05-05T09:10:30.176Z,39.50
2023-05-05T09:13:00.128Z,38.60
2023-05-05T09:15:29.045Z,38.60
2023-05-05T09:17:58.260Z,38.50
2023-05-05T09:20:34.982Z,38.50
2023-05-05T09:23:10.359Z,38.50
2023-05-05T09:25:38.990Z,38.00
2023-05-05T09:28:13.253Z,38.20
2023-05-05T09:30:43.774Z,38.20
2023-05-05T09:33:12.365Z,37.90
2023-05-05T09:35:52.423Z,37.50
2023-05-05T09:38:22.291Z,36.90
2023-05-05T09:40:52.270Z,37.20
2023-05-05T09:43:24.686Z,36.90
2023-05-05T09:45:53.156Z,36.30
2023-05-05T09:48:26.630Z,36.20
2023-05-05T09:50:55.959Z,36.20
2023-05-05T09:53:25.444Z,35.70
2023-05-05T09:55:55.706Z,35.90
2023-05-05T09:58:27.308Z,35.80
2023-05-05T10:00:57.564Z,35.60
2023-05-05T10:03:26.688Z,35.60
2023-05-05T10:05:56.963Z,35.40
2023-05-05T10:08:27.036Z,35.30
2023-05-05T10:10:57.509Z,35.40
2023-05-05T10:13:27.848Z,35.30
2023-05-05T10:15:58.348Z,35.40
2023-05-05T10:18:30.179Z,35.00
2023-05-05T10:21:00.808Z,34.50
2023-05-05T10:23:37.345Z,34.50
2023-05-05T10:26:08.842Z,33.90
2023-05-05T10:28:45.875Z,34.00
2023-05-05T10:31:26.365Z,33.50
2023-05-05T10:34:01.731Z,33.80
2023-05-05T10:36:31.782Z,33.80
2023-05-05T10:39:02.153Z,33.50
2023-05-05T10:41:31.932Z,33.00
2023-05-05T10:44:04.424Z,33.20
2023-05-05T10:46:33.434Z,32.80
2023-05-05T10:49:13.661Z,33.00
2023-05-05T10:51:55.555Z,32.20
2023-05-05T10:54:34.275Z,31.90
2023-05-05T10:57:04.988Z,31.90
2023-05-05T10:59:43.750Z,31.90
2023-05-05T11:02:27.234Z,31.40
2023-05-05T11:05:17.625Z,30.90
2023-05-05T11:07:47.253Z,30.40
2023-05-05T11:10:17.929Z,31.30
2023-05-05T11:13:20.701Z,31.10
2023-05-05T11:15:52.671Z,30.60
2023-05-05T11:18:37.598Z,31.10
2023-05-05T11:21:17.609Z,30.10
2023-05-05T11:23:51.220Z,30.40
2023-05-05T11:26:49.862Z,30.30
2023-05-05T11:29:18.524Z,30.60
2023-05-05T11:32:15.621Z,30.80
2023-05-05T11:34:50.906Z,30.20
2023-05-05T11:37:19.364Z,30.40
2023-05-05T11:40:04.008Z,30.60
2023-05-05T11:42:32.608Z,30.30
2023-05-05T11:45:01.329Z,30.40
2023-05-05T11:47:32.684Z,30.60
2023-05-05T11:50:21.774Z,30.00
2023-05-05T11:52:50.351Z,29.50
2023-05-05T11:55:25.528Z,29.80
2023-05-05T11:57:53.914Z,29.80
2023-05-05T12:00:34.028Z,30.00
2023-05-05T12:03:03.864Z,29.50
2023-05-05T12:05:34.846Z,30.00
2023-05-05T12:08:05.099Z,29.90
2023-05-05T12:10:33.583Z,29.80
2023-05-05T12:13:01.938Z,30.30
2023-05-05T12:15:32.142Z,29.80
2023-05-05T12:18:02.719Z,29.70
2023-05-05T12:20:34.560Z,29.60
2023-05-05T12:23:04.855Z,29.30
2023-05-05T12:25:38.405Z,29.20
2023-05-05T12:28:08.358Z,29.20
2023-05-05T12:30:37.364Z,29.40
2023-05-05T12:33:07.897Z,29.40
2023-05-05T12:35:38.146Z,29.40
2023-05-05T12:38:06.594Z,29.50
2023-05-05T12:40:46.671Z,29.60
2023-05-05T12:43:29.978Z,29.40
2023-05-05T12:46:07.766Z,29.30
2023-05-05T12:48:38.110Z,29.30
2023-05-05T12:51:20.525Z,29.60
2023-05-05T12:53:50.629Z,29.30
2023-05-05T12:56:32.750Z,29.60
2023-05-05T12:59:01.525Z,29.20
2023-05-05T13:01:30.190Z,29.50
2023-05-05T13:04:12.913Z,29.50
2023-05-05T13:06:44.259Z,29.20
2023-05-05T13:09:24.705Z,29.60
2023-05-05T13:11:53.729Z,29.30
2023-05-05T13:14:22.565Z,29.60
2023-05-05T13:16:51.101Z,29.60
2023-05-05T13:19:19.511Z,29.80
2023-05-05T13:21:49.231Z,29.70
2023-05-05T13:26:48.932Z,29.60
2023-05-05T13:29:17.545Z,29.80
2023-05-05T13:31:46.757Z,29.70
2023-05-05T13:34:15.290Z,29.80
2023-05-05T13:36:43.617Z,29.80
2023-05-05T13:39:13.724Z,29.80
2023-05-05T13:41:52.120Z,29.90
2023-05-05T13:44:20.711Z,29.60
2023-05-05T13:46:49.296Z,29.90
2023-05-05T13:49:18.055Z,29.80
2023-05-05T13:51:47.182Z,29.70
2023-05-05T13:54:17.103Z,29.70
2023-05-05T13:56:45.602Z,29.60
2023-05-05T13:59:14.009Z,29.40
2023-05-05T14:01:42.654Z,29.80
2023-05-05T14:04:11.140Z,29.70
2023-05-05T14:06:39.589Z,29.50
2023-05-05T14:09:08.221Z,29.50
2023-05-05T14:11:37.940Z,29.50
2023-05-05T14:14:06.285Z,29.50
2023-05-05T14:16:34.854Z,29.60
2023-05-05T14:19:03.369Z,29.60
2023-05-05T14:21:32.780Z,29.60
2023-05-05T14:24:01.157Z,29.70
2023-05-05T14:26:29.574Z,29.80
2023-05-05T14:28:59.252Z,29.70
2023-05-05T14:31:28.641Z,29.80
2023-05-05T14:33:56.999Z,29.90
2023-05-05T14:36:25.426Z,29.70
2023-05-05T14:38:53.796Z,29.70
2023-05-05T14:41:22.400Z,29.70
2023-05-05T14:43:50.712Z,29.50
2023-05-05T14:46:20.505Z,29.50
2023-05-05T14:48:48.885Z,29.40
2023-05-05T14:51:17.247Z,29.30
2023-05-05T14:53:45.588Z,29.30
2023-05-05T14:56:13.920Z,29.50
2023-05-05T14:58:42.367Z,29.40
2023-05-05T15:01:10.879Z,29.40
2023-05-05T15:03:40.855Z,29.50
2023-05-05T15:06:09.716Z,29.50
2023-05-05T15:08:39.074Z,29.60
2023-05-05T15:11:07.639Z,29.60
2023-05-05T15:13:38.594Z,29.60
2023-05-05T15:16:07.963Z,29.60
2023-05-05T15:18:36.404Z,29.70
2023-05-05T15:21:06.534Z,29.70
2023-05-05T15:23:35.080Z,29.70
2023-05-05T15:26:03.919Z,29.80
2023-05-05T15:28:32.336Z,29.70
2023-05-05T15:31:02.679Z,29.70
2023-05-05T15:33:31.837Z,29.80
2023-05-05T15:36:00.407Z,29.80
2023-05-05T15:38:31.302Z,29.80
2023-05-05T15:41:00.068Z,29.80
2023-05-05T15:43:28.735Z,29.90
2023-05-05T15:45:57.142Z,29.90
2023-05-05T15:48:25.467Z,29.90
2023-05-05T15:50:53.855Z,30.00
2023-05-05T15:53:22.218Z,30.00
2023-05-05T15:55:51.976Z,30.50
2023-05-05T15:58:20.327Z,30.00
2023-05-05T16:00:48.917Z,30.00
2023-05-05T16:03:17.840Z,30.00
2023-05-05T16:05:47.216Z,30.00
2023-05-05T16:08:15.647Z,30.00
2023-05-05T16:10:43.963Z,30.00
2023-05-05T16:13:14.175Z,30.00
2023-05-05T16:15:42.623Z,30.00
2023-05-05T16:18:11.194Z,30.10
2023-05-05T16:20:39.546Z,30.00
2023-05-05T16:23:08.101Z,30.00
2023-05-05T16:25:36.427Z,30.00
2023-05-05T16:28:05.381Z,30.00
2023-05-05T16:30:35.392Z,30.10
2023-05-05T16:33:03.732Z,30.10
2023-05-05T16:35:32.148Z,30.20
2023-05-05T16:38:00.576Z,30.10
2023-05-05T16:40:29.301Z,30.30
2023-05-05T16:42:57.699Z,30.40
2023-05-05T16:45:26.157Z,30.50
2023-05-05T16:47:56.300Z,30.80
2023-05-05T16:50:24.814Z,30.80
2023-05-05T16:52:53.155Z,30.90
2023-05-05T16:55:21.918Z,30.80
2023-05-05T16:57:50.309Z,30.90
2023-05-05T17:00:19.093Z,31.00
2023-05-05T17:02:47.592Z,31.20
2023-05-05T17:05:18.513Z,31.10
2023-05-05T17:07:48.271Z,31.20
2023-05-05T17:10:16.923Z,31.20
2023-05-05T17:12:45.296Z,31.20
2023-05-05T17:15:13.648Z,31.20
2023-05-05T17:17:43.218Z,31.20
2023-05-05T17:20:13.183Z,31.30
2023-05-05T17:22:42.921Z,31.40
2023-05-05T17:25:11.775Z,31.30
2023-05-05T17:27:40.203Z,31.30
2023-05-05T17:30:10.381Z,31.30
2023-05-05T17:32:38.942Z,31.30
2023-05-05T17:35:08.475Z,31.30
2023-05-05T17:37:37.262Z,31.40
2023-05-05T17:40:08.764Z,31.50
2023-05-05T17:42:38.315Z,31.60
2023-05-05T17:45:08.564Z,31.70
2023-05-05T17:47:37.512Z,31.90
2023-05-05T17:50:07.319Z,32.00
2023-05-05T17:52:35.643Z,32.20
2023-05-05T17:55:04.001Z,32.30
2023-05-05T17:57:33.726Z,32.50
2023-05-05T18:00:05.562Z,32.70
2023-05-05T18:02:40.948Z,32.80
2023-05-05T18:05:10.877Z,32.90
2023-05-05T18:07:41.161Z,33.00
2023-05-05T18:10:11.162Z,33.00
2023-05-05T18:12:40.905Z,33.10
2023-05-05T18:15:10.588Z,33.30
2023-05-05T18:17:39.232Z,33.50
2023-05-05T18:20:09.362Z,33.60
2023-05-05T18:22:37.744Z,33.70
2023-05-05T18:25:08.357Z,33.90
2023-05-05T18:27:37.441Z,34.00
2023-05-05T18:30:09.450Z,34.20
2023-05-05T18:32:39.023Z,34.50
2023-05-05T18:35:09.386Z,34.40
2023-05-05T18:37:38.112Z,34.60
2023-05-05T18:40:10.116Z,34.70
2023-05-05T18:42:38.845Z,34.80
2023-05-05T18:45:12.206Z,34.90
2023-05-05T18:47:41.533Z,35.40
2023-05-05T18:50:11.204Z,35.30
2023-05-05T18:52:40.484Z,35.60
2023-05-05T18:55:10.752Z,35.60
2023-05-05T18:57:40.157Z,35.80
2023-05-05T19:00:12.375Z,35.80
2023-05-05T19:02:41.014Z,36.20
2023-05-05T19:05:10.919Z,36.20
2023-05-05T19:07:39.576Z,36.50
2023-05-05T19:10:10.092Z,36.70
2023-05-05T19:12:38.683Z,36.70
2023-05-05T19:15:10.174Z,36.90
2023-05-05T19:17:39.221Z,37.10
2023-05-05T19:20:11.032Z,37.30
2023-05-05T19:22:39.912Z,37.70
2023-05-05T19:25:09.622Z,37.70
2023-05-05T19:27:38.588Z,38.10
2023-05-05T19:30:10.782Z,38.10
2023-05-05T19:32:39.494Z,38.30
2023-05-05T19:35:10.565Z,38.40
2023-05-05T19:37:39.366Z,38.50
2023-05-05T19:40:11.744Z,38.70
2023-05-05T19:42:42.035Z,39.00
2023-05-05T19:45:13.772Z,38.80
2023-05-05T19:47:43.236Z,39.00
2023-05-05T19:50:12.549Z,39.10
2023-05-05T19:52:42.431Z,39.20
2023-05-05T19:55:13.906Z,39.30
2023-05-05T19:57:45.955Z,39.30
2023-05-05T20:00:20.218Z,39.50
2023-05-05T20:02:51.441Z,39.80
2023-05-05T20:05:22.943Z,39.60
2023-05-05T20:07:53.266Z,39.70
2023-05-05T20:10:23.321Z,39.90
2023-05-05T20:12:54.246Z,39.90
2023-05-05T20:15:26.820Z,40.00
2023-05-05T20:17:57.768Z,40.20
2023-05-05T20:20:28.413Z,40.10
2023-05-05T20:23:01.466Z,40.30
2023-05-05T20:25:31.383Z,40.60
2023-05-05T20:28:01.768Z,40.30
2023-05-05T20:30:36.927Z,40.40
2023-05-05T20:33:07.826Z,40.60
2023-05-05T20:35:38.371Z,40.50
2023-05-05T20:38:10.351Z,40.80
2023-05-05T20:40:40.677Z,40.70
2023-05-05T20:43:13.799Z,40.70
2023-05-05T20:45:44.746Z,40.70
2023-05-05T20:48:13.700Z,40.70
2023-05-05T20:50:43.188Z,40.80
2023-05-05T20:53:13.937Z,40.90
2023-05-05T20:55:45.918Z,41.10
2023-05-05T20:58:22.945Z,41.10
2023-05-05T21:00:58.046Z,41.30
2023-05-05T21:03:57.492Z,41.20
2023-05-05T21:06:28.966Z,41.90
2023-05-05T21:08:59.310Z,41.10
2023-05-05T21:11:29.147Z,41.90
2023-05-05T21:13:58.171Z,41.30
2023-05-05T21:16:30.461Z,41.30
2023-05-05T21:22:16.897Z,42.20
2023-05-05T21:24:51.389Z,41.50
2023-05-05T21:27:25.508Z,41.60
2023-05-05T21:39:45.037Z,42.40
2023-05-05T21:42:14.969Z,42.10
2023-05-05T21:44:43.901Z,41.80
2023-05-05T21:47:12.507Z,41.90
2023-05-05T21:49:41.746Z,41.90
2023-05-05T21:52:10.434Z,42.00
2023-05-05T21:54:39.858Z,42.30
2023-05-05T21:57:10.523Z,42.30
2023-05-05T21:59:39.718Z,42.50
2023-05-05T22:02:09.388Z,42.40
2023-05-05T22:04:39.266Z,41.90
2023-05-05T22:07:08.442Z,42.10
2023-05-05T22:09:37.341Z,42.00
2023-05-05T22:12:10.004Z,42.40
2023-05-05T22:14:39.051Z,42.60
2023-05-05T22:17:07.838Z,42.20
2023-05-05T22:19:36.851Z,42.80
2023-05-05T22:22:05.753Z,42.50
2023-05-05T22:24:34.568Z,42.80
2023-05-05T22:27:07.282Z,42.80
2023-05-05T22:29:39.838Z,42.80
2023-05-05T22:32:10.369Z,43.10
2023-05-05T22:34:39.630Z,42.90
2023-05-05T22:37:08.611Z,43.20
2023-05-05T22:39:37.771Z,43.30
2023-05-05T22:42:07.254Z,43.40
2023-05-05T22:44:37.287Z,44.10
2023-05-05T22:47:07.023Z,43.70
2023-05-05T22:49:35.620Z,43.60
2023-05-05T22:52:04.111Z,43.70
2023-05-05T22:54:33.072Z,43.70
2023-05-05T22:57:02.335Z,43.80
2023-05-05T22:59:30.748Z,43.80
2023-05-05T23:02:00.420Z,44.60
2023-05-05T23:04:28.858Z,44.20
2023-05-05T23:06:57.555Z,44.00
2023-05-05T23:09:26.026Z,44.20
2023-05-05T23:11:54.457Z,44.30
2023-05-05T23:14:22.901Z,44.30
2023-05-05T23:16:51.465Z,44.40
2023-05-05T23:19:48.824Z,44.30
2023-05-05T23:22:17.537Z,45.10
2023-05-05T23:24:45.911Z,44.30
2023-05-05T23:27:14.372Z,44.40
2023-05-05T23:29:42.718Z,44.60
2023-05-05T23:32:11.120Z,44.40
2023-05-05T23:34:39.437Z,44.40
2023-05-05T23:37:09.129Z,44.60
2023-05-05T23:39:37.542Z,44.60
2023-05-05T23:42:06.009Z,44.60
2023-05-05T23:44:34.359Z,44.60
2023-05-05T23:47:02.699Z,44.70
2023-05-05T23:49:31.073Z,44.60
2023-05-05T23:51:59.595Z,44.70
2023-05-05T23:54:29.323Z,44.70
2023-05-05T23:56:58.735Z,44.90
2023-05-05T23:59:27.382Z,44.90
